ラロトンガ の空港の天気 - METARとTAF

ラロトンガ国際空港 ( NCRG / RAR ) - クック諸島 アバルア (ラロトンガ島)
飛行場実況気象(Metar)
観測時間06/17 09:30 CKT (06/17 19:30 UTC)
風向・風速東 4m/s
視程3100m
天気現象弱い雨 もや
全天の8割程度の雲 雲底高度 180m
全天の8割程度の雲 雲底高度 340m
全天の8割程度の雲 雲底高度 980m
気温23℃
湿度100%
気圧1017hPa
METARNCRG 171930Z AUTO 08008KT 060V140 3100 -RA BR BKN006/// BKN011/// BKN032/// 23/23 Q1017
過去の天気等 Google飛行場航空写真 Wunderground天気予報

過去48時間のMETAR

飛行場予報(TAF)
発表時間: 6/17 07:09 CKT (6/17 17:09 UTC)
予報対象時間: 17日8時 CKT ~ 18日8時 CKT
風向・風速東 4m/s
視程10km以上
全天の4割程度の雲 雲底高度 670m
TAF NCRG 171709Z 1718/1818 10007KT 9999 SCT022